• Join FlightAware (Why Join?)
  • Login
  • US Flag 
02:31PM EDT


 

Airport Tracker/Info


-or-


 

Live Flight TrackerFlight Track Log ✈ N204CE ✈ 11-Jun-2013 ✈ EINN / SNN - KPNE

Flight Track Log - Related Links

Times and Time Zones

All times are in EDT time to prevent confusion due to time zone crossing. See the N204CE flight status page for this flight to view local times or setup timezone preferences in your user account.

Time Position Orientation Groundspeed Altitude Reporting Facility
EDT Latitude Longitude Course Direction KTS MPH feet Rate Location/Type
03:05PM 53.9667 -54.5167 282° West 460 529 40,000  Level Moncton Center
03:06PM 53.9000 -54.7000 238° Southwest 460 529 40,000  Level Moncton Center
03:07PM 53.8167 -54.8667 230° Southwest 460 529 40,100 480 Climbing Moncton Center
03:08PM 53.7333 -55.0333 230° Southwest 460 529 41,000 720 Climbing Moncton Center
03:09PM 53.6500 -55.1833 227° Southwest 470 541 41,600 600 Climbing Moncton Center
03:10PM 50.0092 -51.8164 282° West  Level Estimated
03:10PM 53.5667 -55.3500 230° Southwest 470 541 42,300  Level Moncton Center
03:11PM 53.4833 -55.5000 227° Southwest 460 529 43,000 300 Climbing Moncton Center
03:12PM 53.4000 -55.7000 235° Southwest 460 529 43,000  Level Moncton Center
03:12PM 53.3333 -55.7833 217° Southwest 460 529 43,000  Level Gander Center
03:13PM 53.3000 -55.8500 230° Southwest 460 529 43,000  Level Gander Center
03:14PM 53.2333 -56.0000 233° Southwest 460 529 43,000  Level Moncton Center
03:15PM 53.1500 -56.1667 230° Southwest 460 529 43,000  Level Moncton Center
03:16PM 53.0500 -56.3167 222° Southwest 460 529 43,000  Level Moncton Center
03:16PM 53.0000 -56.4500 238° Southwest 460 529 43,000  Level Gander Center
03:17PM 52.9000 -56.6000 222° Southwest 460 529 43,000  Level Gander Center
03:18PM 52.9000 -56.6500 270° West 460 529 43,000  Level Moncton Center
03:19PM 52.8000 -56.8167 225° Southwest 460 529 43,000  Level Moncton Center
03:19PM 52.7500 -56.9167 230° Southwest 460 529 43,000  Level Gander Center
03:20PM 52.6500 -57.0667 222° Southwest 460 529 43,000  Level Gander Center
03:21PM 52.6167 -57.1167 222° Southwest 460 529 43,000  Level Moncton Center
03:21PM 52.5833 -57.2333 245° Southwest 460 529 43,000  Level Gander Center
03:22PM 52.5500 -57.2667 211° Southwest 460 529 43,000  Level Moncton Center
03:23PM 52.4667 -57.4167 228° Southwest 460 529 43,000  Level Moncton Center
03:24PM 52.3833 -57.5667 228° Southwest 460 529 43,000  Level Moncton Center
03:25PM 52.2833 -57.7167 223° Southwest 450 518 43,000  Level Moncton Center
03:26PM 52.2000 -57.9000 233° Southwest 450 518 43,000  Level Moncton Center
03:27PM 52.1167 -58.0167 221° Southwest 460 529 43,000  Level Moncton Center
03:27PM 52.0500 -58.1500 231° Southwest 450 518 43,000  Level Gander Center
03:28PM 52.0333 -58.2000 242° Southwest 450 518 43,000  Level Moncton Center
03:29PM 51.9500 -58.3333 225° Southwest 450 518 43,000  Level Moncton Center
03:29PM 51.8667 -58.4333 217° Southwest 450 518 43,000  Level Gander Center
03:30PM 51.8500 -58.4833 242° Southwest 450 518 43,000  Level Moncton Center
03:31PM 51.7833 -58.6333 234° Southwest 450 518 43,000  Level Moncton Center
03:31PM 51.7167 -58.7500 227° Southwest 440 506 43,000  Level Gander Center
03:32PM 51.6833 -58.8000 223° Southwest 440 506 43,000  Level Gander Center
03:33PM 51.6000 -58.9333 225° Southwest 450 518 43,000  Level Gander Center
03:34PM 51.5167 -59.0833 228° Southwest 440 506 43,000  Level Gander Center
03:35PM 51.4167 -59.2167 220° Southwest 440 506 43,000  Level Gander Center
03:36PM 51.3333 -59.3500 225° Southwest 450 518 43,000  Level Gander Center
03:37PM 51.2667 -59.4667 228° Southwest 450 518 43,000  Level Moncton Center
03:38PM 51.1667 -59.6500 229° Southwest 450 518 43,000  Level Gander Center
03:39PM 51.0833 -59.7833 225° Southwest 440 506 43,000  Level Gander Center
03:40PM 51.0000 -59.9333 229° Southwest 440 506 43,000  Level Moncton Center
03:41PM 50.9167 -60.0333 217° Southwest 440 506 43,000  Level Moncton Center
03:42PM 50.8167 -60.1833 223° Southwest 440 506 43,000  Level Moncton Center
03:43PM 50.7500 -60.3167 232° Southwest 430 495 43,000  Level Moncton Center
03:44PM 50.6667 -60.4667 229° Southwest 440 506 43,000  Level Moncton Center
03:45PM 50.5667 -60.6000 220° Southwest 440 506 43,000  Level Moncton Center
03:46PM 50.4833 -60.7333 226° Southwest 440 506 43,000  Level Moncton Center
03:47PM 50.4000 -60.8833 229° Southwest 430 495 43,000  Level Moncton Center
03:48PM 50.3167 -60.9833 217° Southwest 430 495 43,000  Level Moncton Center
03:49PM 50.2167 -61.1500 227° Southwest 430 495 43,000  Level Moncton Center
03:50PM 50.1333 -61.2667 222° Southwest 430 495 43,000  Level Moncton Center
03:51PM 50.0500 -61.4000 226° Southwest 430 495 43,000  Level Moncton Center
03:52PM 49.9833 -61.5333 232° Southwest 430 495 43,000  Level Moncton Center
03:53PM 49.8833 -61.6667 221° Southwest 440 506 43,000  Level Moncton Center
03:54PM 49.8000 -61.8000 226° Southwest 430 495 43,000  Level Moncton Center
03:55PM 49.7167 -61.9167 222° Southwest 430 495 43,000  Level Moncton Center
03:56PM 49.6167 -62.0500 221° Southwest 430 495 43,000  Level Gander Center
03:57PM 49.5333 -62.1833 226° Southwest 430 495 43,000  Level Moncton Center
03:58PM 49.4500 -62.3167 226° Southwest 420 483 43,000  Level Moncton Center
03:59PM 49.3667 -62.4500 226° Southwest 430 495 43,000  Level Moncton Center
04:00PM 49.2833 -62.5500 218° Southwest 430 495 43,000  Level Moncton Center
04:01PM 49.2000 -62.6833 226° Southwest 420 483 43,000  Level Moncton Center
04:02PM 49.1167 -62.8167 226° Southwest 420 483 43,000  Level Moncton Center
04:03PM 49.0333 -62.9333 223° Southwest 420 483 43,000  Level Moncton Center
04:04PM 48.9500 -63.0500 223° Southwest 420 483 43,000  Level Moncton Center
04:05PM 48.8500 -63.1833 221° Southwest 420 483 43,000  Level Moncton Center
04:06PM 48.7667 -63.3000 223° Southwest 420 483 43,000  Level Moncton Center
04:07PM 48.6833 -63.4333 227° Southwest 430 495 43,000  Level Moncton Center
04:08PM 48.5833 -63.5333 213° Southwest 430 495 43,000  Level Moncton Center
04:09PM 48.5000 -63.6667 227° Southwest 420 483 43,000  Level Moncton Center
04:10PM 48.4167 -63.7833 223° Southwest 420 483 43,000  Level Moncton Center
04:11PM 48.3333 -63.9000 223° Southwest 420 483 43,000  Level Moncton Center
04:12PM 48.2500 -64.0167 223° Southwest 430 495 43,000  Level Moncton Center
04:13PM 48.1500 -64.1500 222° Southwest 420 483 43,000  Level Moncton Center
04:14PM 48.0667 -64.2667 223° Southwest 420 483 43,000  Level Moncton Center
04:15PM 47.9833 -64.3667 219° Southwest 420 483 43,000  Level Moncton Center
04:16PM 47.8833 -64.5000 222° Southwest 420 483 43,000  Level Moncton Center
04:17PM 47.8167 -64.6167 230° Southwest 410 472 43,000  Level Moncton Center
04:18PM 47.7167 -64.7167 214° Southwest 420 483 43,000  Level Moncton Center
04:19PM 47.6333 -64.8500 227° Southwest 410 472 43,000  Level Moncton Center
04:20PM 47.5500 -64.9500 219° Southwest 410 472 43,000  Level Moncton Center
04:21PM 47.4667 -65.0667 223° Southwest 410 472 43,000  Level Moncton Center
04:22PM 47.3833 -65.1667 219° Southwest 400 460 43,000  Level Moncton Center
04:23PM 47.3000 -65.2833 224° Southwest 400 460 43,000  Level Moncton Center
04:24PM 47.2167 -65.4000 224° Southwest 400 460 43,000  Level Moncton Center
04:25PM 47.1333 -65.5000 219° Southwest 400 460 43,000  Level Moncton Center
04:26PM 47.0333 -65.6000 214° Southwest 400 460 43,000  Level Moncton Center
04:27PM 46.9500 -65.7167 224° Southwest 390 449 43,000  Level Moncton Center
04:28PM 46.8833 -65.8167 226° Southwest 390 449 43,000  Level Moncton Center
04:29PM 46.8000 -65.9167 219° Southwest 390 449 43,000  Level Moncton Center
04:30PM 46.7167 -66.0333 224° Southwest 390 449 43,000  Level Moncton Center
04:31PM 46.6333 -66.1333 220° Southwest 390 449 43,000  Level Moncton Center
04:32PM 46.5500 -66.2500 224° Southwest 390 449 43,000  Level Moncton Center
04:33PM 46.4833 -66.3333 221° Southwest 390 449 43,000  Level Moncton Center
04:34PM 46.4000 -66.4667 228° Southwest 390 449 43,000  Level Moncton Center
04:35PM 46.3000 -66.5500 210° Southwest 400 460 43,000  Level Moncton Center
04:36PM 46.2167 -66.6667 224° Southwest 400 460 43,000  Level Moncton Center
04:37PM 46.1333 -66.7667 220° Southwest 400 460 43,000  Level Moncton Center
04:38PM 46.0500 -66.8833 224° Southwest 400 460 43,000  Level Moncton Center
04:39PM 45.9667 -66.9667 215° Southwest 410 472 43,000  Level Moncton Center
04:40PM 45.8833 -67.0833 224° Southwest 410 472 43,000  Level Moncton Center
04:41PM 45.7833 -67.1833 215° Southwest 410 472 43,000  Level Moncton Center
04:42PM 45.7000 -67.3000 224° Southwest 410 472 43,000  Level Moncton Center
04:43PM 45.6167 -67.3833 215° Southwest 410 472 43,000  Level Moncton Center
04:44PM 45.5333 -67.5000 224° Southwest 410 472 43,000  Level Moncton Center
04:45PM 45.4500 -67.6000 220° Southwest 410 472 43,000  Level Moncton Center
04:46PM 45.3808 -67.6908 223° Southwest 414 476 43,000  Level Boston Center
04:47PM 45.2833 -67.8167 222° Southwest 400 460 43,000  Level Moncton Center
04:48PM 45.2514 -67.9492 251° West 404 465 43,000  Level Boston Center
04:49PM 45.2033 -68.0589 238° Southwest 409 471 43,000  Level Boston Center
04:50PM 45.1267 -68.2356 238° Southwest 414 476 43,000  Level Boston Center
04:51PM 45.0669 -68.3722 238° Southwest 414 476 43,000  Level Boston Center
04:52PM 45.0186 -68.4783 237° Southwest 414 476 43,000  Level Boston Center
04:53PM 44.9450 -68.6478 239° Southwest 419 482 43,000  Level Boston Center
04:54PM 44.8906 -68.7686 238° Southwest 419 482 43,000  Level Boston Center
04:55PM 44.8239 -68.9014 235° Southwest 419 482 43,000  Level Boston Center
04:56PM 44.7394 -69.0058 221° Southwest 419 482 43,000  Level Boston Center
04:57PM 44.6508 -69.1133 221° Southwest 421 484 43,000  Level Boston Center
04:58PM 44.5664 -69.2231 223° Southwest 421 484 43,000  Level Boston Center
04:59PM 44.4797 -69.3297 221° Southwest 426 490 43,000  Level Boston Center
05:00PM 44.3950 -69.4358 222° Southwest 426 490 43,000  Level Boston Center
05:01PM 44.2800 -69.5778 221° Southwest 426 490 43,000  Level Boston Center
05:02PM 44.1908 -69.6864 221° Southwest 426 490 43,000  Level Boston Center
05:03PM 44.1036 -69.7917 221° Southwest 426 490 43,000  Level Boston Center
05:04PM 44.0167 -69.9025 223° Southwest 426 490 43,000  Level Boston Center
05:05PM 43.9294 -70.0128 222° Southwest 426 490 43,000  Level Boston Center
05:06PM 43.8583 -70.0992 221° Southwest 426 490 43,000  Level Boston Center
05:07PM 43.7461 -70.2269 219° Southwest 431 496 43,000  Level Boston Center
05:08PM 43.6525 -70.3397 221° Southwest 441 507 43,000  Level Boston Center
05:09PM 43.5686 -70.4400 221° Southwest 429 494 43,000  Level Boston Center
05:10PM 43.4789 -70.5517 222° Southwest 429 494 43,000  Level Boston Center
05:11PM 43.3758 -70.6292 209° Southwest 434 499 43,000  Level Boston Center
05:12PM 43.2514 -70.6586 190° South 424 488 43,000  Level Boston Center
05:13PM 43.1331 -70.6817 188° South 429 494 43,000  Level Boston Center
05:14PM 43.0106 -70.7108 190° South 439 505 43,000  Level Boston Center
05:15PM 42.8900 -70.7397 190° South 444 511 43,000  Level Boston Center
05:16PM 42.7675 -70.7714 191° South 444 511 43,000  Level Boston Center
05:17PM 42.6572 -70.7942 189° South 454 522 43,000  Level Boston Center
05:18PM 42.5222 -70.8258 190° South 454 522 43,000  Level Boston Center
05:19PM 42.4164 -70.8539 191° South 446 513 43,000  Level Boston Center
05:20PM 42.2939 -70.8794 189° South 446 513 43,000  Level Boston Center
05:21PM 42.1756 -70.9106 191° South 451 519 43,000 -60 Level Boston Center
05:22PM 42.0528 -70.9386 190° South 446 513 42,900  Descending Boston Center
05:23PM 41.9453 -70.9997 203° Southwest 446 513 43,000  Climbing Boston Center
05:24PM 41.8569 -71.1133 224° Southwest 423 487 42,900 -60 Descending Boston Center
05:25PM 41.7708 -71.2236 224° Southwest 433 498 42,900  Level Boston Center
05:26PM 41.6864 -71.3364 225° Southwest 438 504 42,900 -600 Level Boston Center
05:27PM 41.6019 -71.4461 224° Southwest 431 496 41,700 -1,500 Descending Boston Center
05:28PM 41.5175 -71.5528 223° Southwest 425 489 40,000 -1,800 Descending Boston Center
05:29PM 41.4203 -71.6650 221° Southwest 425 489 38,100 -1,800 Descending Boston Center
05:30PM 41.3375 -71.7711 224° Southwest 419 482 36,400 -1,680 Descending Boston Center
05:31PM 41.2569 -71.8686 222° Southwest 419 482 34,800 -1,860 Descending Boston Center
05:32PM 41.1617 -71.9989 226° Southwest 435 501 32,700 -2,040 Descending Boston Center
05:33PM 41.0703 -72.1097 222° Southwest 447 514 30,800 -1,920 Descending Boston Center
05:34PM 40.9789 -72.2256 224° Southwest 452 520 28,900 -1,800 Descending Boston Center
05:35PM 40.9103 -72.3164 225° Southwest 447 514 27,300 -1,980 Descending Boston Center
05:36PM 40.8353 -72.4675 237° Southwest 416 479 25,000 -2,100 Descending Boston Center
05:37PM 40.7581 -72.5744 226° Southwest 416 479 23,100 -1,980 Descending Boston Center
05:38PM 40.6558 -72.6425 207° Southwest 413 475 21,100 -1,800 Descending Boston Center
05:40PM 40.5217 -72.7942 221° Southwest 382 440 18,400 -1,560 Descending New York Center
05:41PM 40.4533 -72.8767 223° Southwest 369 425 17,000 -1,260 Descending New York Center
05:42PM 40.3725 -72.9750 223° Southwest 369 425 16,000 -540 Descending New York Center
05:43PM 40.3064 -73.0572 223° Southwest 369 425 16,000  Level New York Center
05:44PM 40.2253 -73.1525 222° Southwest 364 419 16,000  Level New York Center
05:45PM 40.1611 -73.2317 223° Southwest 364 419 16,000 -180 Level New York Center
05:46PM 40.0819 -73.3292 223° Southwest 357 411 15,700 -900 Descending New York Center
05:47PM 40.0156 -73.4053 221° Southwest 357 411 14,300 -1,500 Descending New York Center
05:48PM 39.9381 -73.5081 225° Southwest 357 411 12,700 -1,560 Descending New York Center
05:49PM 39.8883 -73.5925 233° Southwest 340 391 11,200 -1,500 Descending New York Center
05:50PM 39.8122 -73.6328 202° Southwest 298 343 9,700 -1,200 Descending New York Center
05:51PM 39.7894 -73.7128 250° West 257 296 8,900 -420 Descending New York Center
05:52PM 39.8269 -73.7956 301° West 220 253 8,900 -660 Level New York Center
05:53PM 39.8581 -73.8806 296° West 239 275 7,600 -1,320 Descending New York Center
05:54PM 39.8872 -73.9522 298° West 252 290 6,300 -1,320 Descending New York Center
05:55PM 39.9164 -74.0322 295° West 257 296 5,000 -720 Descending New York Center
05:56PM 39.9514 -74.1206 297° West 257 296 4,900  Descending New York Center
05:57PM 39.9806 -74.1978 296° West 246 283 5,000  Climbing New York Center
05:58PM 40.0114 -74.2778 297° West 246 283 5,000 -240 Level New York Center
05:59PM 40.0383 -74.3497 296° West 246 283 4,600 -600 Descending New York Center
06:00PM 40.0733 -74.4356 298° West 246 283 3,900 -360 Descending New York Center
06:01PM 40.1022 -74.5131 296° West 246 283 4,000  Climbing New York Center
06:02PM 40.1308 -74.5906 296° West 246 283 4,000 -120 Level New York Center
06:03PM 40.1553 -74.6708 292° West 246 283 3,800 -360 Descending New York Center
06:04PM 40.1544 -74.7575 269° West 235 270 3,400 -360 Descending New York Center
06:05PM 40.1539 -74.8364 269° West 235 270 3,100 -600 Descending New York Center
06:06PM 40.1517 -74.8986 267° West 193 222 2,300 -900 Descending New York Center
06:07PM 40.1292 -74.9461 238° Southwest 166 191 1,400 -720 Descending New York Center
06:08PM 40.1069 -74.9856 234° Southwest 147 169 900 1,260 Descending New York Center
06:09PM 40.1817 -74.9983 353° North 120 138 4,000 1,560 Climbing New York Center
06:10PM 40.2406 -74.9258 43° Northeast 360 414 4,000  Level New York Center
06:11PM 40.3228 -74.8381 39° Northeast 360 414 4,000  Level New York Center
06:13PM 40.1218 -74.9821 209° Southwest  Level Estimated
06:20PM 40.0819 -75.0106 209° Southwest  Level Estimated
06:21PM 40.0819 -75.0106 330° Northwest  Level Estimated
06:22PM 40.0819 -75.0106 330° Northwest  Level Estimated
06:23PM 40.0819 -75.0106 330° Northwest  Level Estimated